Thursday, April 26, 2018, 4:56 PM EDT
Back to Local

KBWI, Baltimore-washington International

Location: Glen Burnie, MD, United States Lat: 39.167
Local Time: 4:56 PM EDT (20:56 GMT) Lon: -76.683
Time Zone: US/Eastern Elev: 147 ft

Show me the last for .
Show Decoded

2018-04-26 15:54 METAR KBWI 261954Z 31011KT 10SM FEW160 SCT250 21/03 A2983 RMK AO2 SLP099
                 T02060028 =
2018-04-26 14:54 METAR KBWI 261854Z 31013G16KT 10SM FEW160 SCT250 19/03 A2984 RMK AO2 SLP102
                 T01940033 =
2018-04-26 13:54 METAR KBWI 261754Z 32012KT 10SM FEW160 FEW250 19/04 A2984 RMK AO2 SLP105
                 T01890039 10189 20106 58005 =
2018-04-26 12:54 METAR KBWI 261654Z 31012G18KT 10SM FEW160 FEW250 18/05 A2985 RMK AO2 SLP106
                 T01780050 =
2018-04-26 11:54 METAR KBWI 261554Z 31013KT 10SM FEW002 FEW160 FEW250 16/06 A2986 RMK AO2 SLP111
                 FU FEW002 FU PLUME S DRFTG SE T01610056 $ =
2018-04-26 11:33 METAR KBWI 261533Z 28013G18KT 10SM FEW000 FEW160 SCT250 16/05 A2986 RMK AO2 FU
                 FEW000 FU PLUME DRFTG SE T01560050 $ =
2018-04-26 10:54 METAR KBWI 261454Z COR 28012KT 10SM SCT150 BKN250 15/05 A2986 RMK AO2 SLP111
                 T01500050 51013 $ =
2018-04-26 09:54 METAR KBWI 261354Z 26010KT 10SM SCT150 SCT250 13/04 A2985 RMK AO2 SLP108
                 T01330044 =
2018-04-26 08:54 METAR KBWI 261254Z 29012G19KT 10SM FEW160 BKN250 13/04 A2984 RMK AO2 SLP104
                 T01280044 =
2018-04-26 07:54 METAR KBWI 261154Z 30013G23KT 10SM FEW160 SCT250 11/04 A2982 RMK AO2 SLP098
                 70001 T01060039 10133 20072 53006 =
2018-04-26 06:54 METAR KBWI 261054Z 28011KT 10SM FEW160 SCT250 09/04 A2981 RMK AO2 SLP093
                 T00890039 =
2018-04-26 05:54 METAR KBWI 260954Z 27007KT 10SM FEW050 SCT250 08/04 A2979 RMK AO2 SLP087
                 T00780039 =
2018-04-26 04:54 METAR KBWI 260854Z 27009KT 10SM SCT250 09/04 A2980 RMK AO2 SLP091 T00940039
                 53027 =
2018-04-26 03:54 METAR KBWI 260754Z 28011KT 10SM FEW250 11/06 A2977 RMK AO2 SLP080 T01060061 =
2018-04-26 02:54 METAR KBWI 260654Z 29017G23KT 10SM CLR 12/08 A2973 RMK AO2 SLP067 T01220078 =
2018-04-26 01:54 METAR KBWI 260554Z 29006KT 10SM CLR 13/10 A2972 RMK AO2 SLP064 60000 T01280100
                 10172 20128 53002 =
2018-04-26 00:54 METAR KBWI 260454Z 28007KT 10SM FEW050 13/12 A2972 RMK AO2 SLP062 T01280117
                 401890122 =
2018-04-25 23:54 METAR KBWI 260354Z 26006KT 10SM FEW050 FEW140 13/13 A2972 RMK AO2 SLP062
                 T01330133 =
2018-04-25 22:54 METAR KBWI 260254Z 25004KT 10SM FEW080 SCT110 SCT140 14/14 A2972 RMK AO2
                 RAB25E35 SLP062 P0000 60000 T01390139 51009 =
2018-04-25 21:54 METAR KBWI 260154Z COR 27004KT 10SM FEW055 BKN075 BKN140 14/14 A2972 RMK AO2
                 RAB08E17 SLP062 P0000 T01440144 =
2018-04-25 20:54 METAR KBWI 260054Z VRB03KT 10SM SCT050 BKN065 OVC080 16/15 A2971 RMK AO2
                 RAB39E51 SLP059 P0000 T01610150 =
2018-04-25 19:54 METAR KBWI 252354Z 30007KT 250V320 10SM FEW025 BKN040 BKN055 OVC150 17/14 A2969
                 RMK AO2 SLP053 VIRGA SE-S AND NW 60000 T01720139 10189 20172 53009 =
2018-04-25 19:41 METAR KBWI 252341Z 30007KT 10SM SCT025 BKN038 OVC050 17/14 A2968 RMK AO2 LTG
                 DSNT SE VIRGA S T01720144 =
2018-04-25 18:54 METAR KBWI 252254Z 31011KT 10SM BKN023 BKN029 OVC050 18/14 A2967 RMK AO2 SLP046
                 T01780144 =
2018-04-25 17:54 METAR KBWI 252154Z 32006KT 10SM BKN021 BKN031 OVC050 18/15 A2967 RMK AO2 LTG
                 DSNT SE SLP045 T01830150 =

Support USWX by starting your Amazon purchase here.